Pompeys Pillar, Montana
Current Conditions -  °F | °C
As of 12:53 PM on Monday 26 Jan 2015 (Local Time) from KBIL Reporting Station
Broken Clouds Broken Clouds  
Wind Chill: 56°   Ceiling: 10000
Heat Index: 56°   Visibility: 10mi
Dew Point: 29°   Wind: 22mph
Humidity: 36%   Direction: 240°WSW
Pressure: 30.07"   Gusts: NA
Location:  45.99°N, 107.96°W
Report Text: KBIL 261953Z 24019KT 10SM BKN100 BKN200 13/M02 A3007 RMK AO2 PK WND 24028/1909 SLP177 ACSL DSNT SW-W T01331017
Loading
Personal Weather Stations






























Interactive Weather Map New forecast layout! Learn more

10-Day Weather Forecast

Advertisements
Track Severe Weather on mobile